Flight Track Log - Related Links

Times and Time Zones

All times are in EDT time to prevent confusion due to time zone crossing. See the ASQ5685 flight status page for this flight to view local times or setup timezone preferences in your user account.

Time Position Orientation Groundspeed Altitude Reporting Facility
EDT Latitude Longitude Course Direction KTS MPH feet Rate Location/Type
Mon 09:24:30 AM 33.6333 -84.3667 68° East 189 217 2,800  Level Atlanta TRACON
Mon 09:25:24 AM 33.6333 -84.2833 90° East 251 289 5,000 2,263 Climbing Atlanta TRACON
Mon 09:26:24 AM 33.6333 -84.2000 90° East 284 327 7,100 2,250 Climbing Atlanta TRACON
Mon 09:27:00 AM 33.9399 -84.0671 53° Northeast  Level Estimated
Mon 09:27:24 AM 33.6333 -84.1000 90° East 289 333 9,500  Level Atlanta TRACON
Mon 09:27:57 AM 33.6586 -84.0714 43° Northeast 308 354 10,200 1,032 Climbing Atlanta Center
Mon 09:28:00 AM 33.9799 -83.9480 68° East  Level FlightAware Approximate
Mon 09:28:57 AM 33.7169 -83.9889 50° Northeast 322 371 11,100  Level Atlanta Center
Mon 09:29:00 AM 34.0198 -83.8287 68° East  Level FlightAware Approximate
Mon 09:29:57 AM 33.7836 -83.9064 46° Northeast 335 386 12,600  Level Atlanta Center
Mon 09:30:57 AM 33.8525 -83.8136 48° Northeast 353 406 14,100 1,450 Climbing Atlanta Center
Mon 09:31:57 AM 33.9211 -83.7233 48° Northeast 361 415 15,500 1,400 Climbing Atlanta Center
Mon 09:32:57 AM 33.9814 -83.6256 53° Northeast 367 422 16,900 1,350 Climbing Atlanta Center
Mon 09:33:57 AM 34.0542 -83.5197 50° Northeast 367 422 18,200 1,400 Climbing Atlanta Center
Mon 09:34:57 AM 34.1142 -83.4167 55° Northeast 367 422 19,700 1,350 Climbing Atlanta Center
Mon 09:35:57 AM 34.1783 -83.3181 52° Northeast 367 422 20,900 1,050 Climbing Atlanta Center
Mon 09:36:57 AM 34.2403 -83.2147 54° Northeast 367 422 21,800 900 Climbing Atlanta Center
Mon 09:37:57 AM 34.3064 -83.1108 52° Northeast 380 437 22,700 900 Climbing Atlanta Center
Mon 09:38:57 AM 34.3700 -83.0019 55° Northeast 386 444 23,600 900 Climbing Atlanta Center
Mon 09:39:57 AM 34.4358 -82.8978 53° Northeast 386 444 24,500 950 Climbing Atlanta Center
Mon 09:40:57 AM 34.5017 -82.7911 53° Northeast 393 452 25,500 950 Climbing Atlanta Center
Mon 09:41:57 AM 34.5717 -82.6867 51° Northeast 388 447 26,400 750 Climbing Atlanta Center
Mon 09:42:57 AM 34.6392 -82.5794 53° Northeast 394 453 27,000 300 Climbing Atlanta Center
Mon 09:43:57 AM 34.7067 -82.4672 54° Northeast 400 460 27,000  Level Atlanta Center
Mon 09:44:57 AM 34.7761 -82.3547 53° Northeast 406 467 27,000  Level Atlanta Center
Mon 09:45:57 AM 34.8433 -82.2444 53° Northeast 411 473 27,000  Level Atlanta Center
Mon 09:46:57 AM 34.9128 -82.1314 53° Northeast 411 473 27,000  Level Atlanta Center
Mon 09:47:57 AM 34.9797 -82.0208 54° Northeast 411 473 27,000  Level Atlanta Center
Mon 09:48:57 AM 35.0447 -81.9128 54° Northeast 406 467 27,000  Level Atlanta Center
Mon 09:49:57 AM 35.0992 -81.8072 58° Northeast 406 467 27,000  Level Atlanta Center
Mon 09:50:57 AM 35.1597 -81.6914 57° Northeast 401 461 27,000  Level Atlanta Center
Mon 09:51:57 AM 35.2181 -81.5803 57° Northeast 401 461 27,000  Level Atlanta Center
Mon 09:52:57 AM 35.2803 -81.4614 57° Northeast 401 461 27,000  Level Atlanta Center
Mon 09:53:57 AM 35.3403 -81.3475 57° Northeast 396 456 27,000  Level Atlanta Center
Mon 09:54:57 AM 35.3983 -81.2311 59° Northeast 396 456 27,000  Level Atlanta Center
Mon 09:55:57 AM 35.4581 -81.1142 58° Northeast 396 456 27,000  Level Atlanta Center
Mon 09:56:57 AM 35.5200 -80.9972 57° Northeast 396 456 27,000  Level Atlanta Center
Mon 09:57:57 AM 35.5817 -80.8825 57° Northeast 396 456 27,000  Level Atlanta Center
Mon 09:58:57 AM 35.6411 -80.7653 58° Northeast 396 456 27,000  Level Atlanta Center
Mon 09:59:57 AM 35.7006 -80.6506 57° Northeast 396 456 27,000  Level Atlanta Center
Mon 10:02:19 AM 35.8436 -80.3683 58° Northeast 401 461 27,000  Level Washington Center
Mon 10:03:19 AM 35.9047 -80.2514 57° Northeast 400 460 27,000  Level Washington Center
Mon 10:04:17 AM 35.9633 -80.1369 58° Northeast 393 452 27,000  Level Washington Center
Mon 10:05:17 AM 36.0261 -80.0222 56° Northeast 393 452 27,000  Level Washington Center
Mon 10:06:18 AM 36.0867 -79.9075 57° Northeast 399 459 27,000  Level Washington Center
Mon 10:07:17 AM 36.1533 -79.7928 54° Northeast 399 459 27,000  Level Washington Center
Mon 10:08:17 AM 36.2178 -79.6778 55° Northeast 409 471 27,000  Level Washington Center
Mon 10:09:18 AM 36.2756 -79.5725 56° Northeast 409 471 27,000  Level Washington Center
Mon 10:10:18 AM 36.3378 -79.4597 56° Northeast 409 471 27,000  Level Washington Center
Mon 10:11:19 AM 36.4019 -79.3442 55° Northeast 409 471 27,000  Level Washington Center
Mon 10:12:19 AM 36.4747 -79.2186 54° Northeast 409 471 27,000  Level Washington Center
Mon 10:13:17 AM 36.5342 -79.1153 54° Northeast 409 471 27,000 -504 Level Washington Center
Mon 10:14:30 AM 36.5978 -79.0017 55° Northeast 404 465 25,900 -896 Descending Washington Center
Mon 10:15:31 AM 36.6814 -78.8450 56° Northeast 423 487 25,000 -454 Descending Washington Center
Mon 10:16:29 AM 36.7475 -78.7206 56° Northeast 430 495 25,000  Level Washington Center
Mon 10:17:30 AM 36.8253 -78.6175 47° Northeast 418 481 25,000  Level Washington Center
Mon 10:18:30 AM 36.9253 -78.5331 34° Northeast 392 451 25,000  Level Washington Center
Mon 10:19:31 AM 37.0128 -78.4556 35° Northeast 392 451 25,000  Level Washington Center
Mon 10:20:29 AM 37.1022 -78.3756 35° Northeast 392 451 25,000 -151 Level Washington Center
Mon 10:21:30 AM 37.1917 -78.3006 34° Northeast 387 445 24,700 -793 Descending Washington Center
Mon 10:22:30 AM 37.2725 -78.2278 36° Northeast 393 452 23,400 -1,250 Descending Washington Center
Mon 10:23:30 AM 37.3619 -78.1447 36° Northeast 393 452 22,200 -694 Descending Washington Center
Mon 10:24:31 AM 37.4553 -78.0642 34° Northeast 393 452 22,000 -99 Descending Washington Center
Mon 10:25:31 AM 37.5444 -77.9858 35° Northeast 393 452 22,000 -51 Level Washington Center
Mon 10:26:29 AM 37.6336 -77.9047 36° Northeast 387 445 21,900 -1,271 Descending Washington Center
Mon 10:27:29 AM 37.7231 -77.8208 37° Northeast 387 445 19,500 -2,331 Descending Washington Center
Mon 10:28:30 AM 37.8119 -77.7419 35° Northeast 387 445 17,200 -2,262 Descending Washington Center
Mon 10:29:31 AM 37.8989 -77.6656 35° Northeast 387 445 14,900 -2,168 Descending Washington Center
Mon 10:30:29 AM 37.9794 -77.5886 37° Northeast 382 440 12,900 -1,866 Descending Washington Center
Mon 10:31:30 AM 38.0597 -77.5222 33° Northeast 371 427 11,200 -1,438 Descending Washington Center
Mon 10:32:30 AM 38.1397 -77.4742 25° Northeast 337 388 10,000 -694 Descending Washington Center
Mon 10:33:31 AM 38.2114 -77.4308 25° Northeast 302 348 9,800 -706 Descending Washington Center
Mon 10:34:29 AM 38.2808 -77.3903 25° Northeast 279 321 8,600 -1,220 Descending Washington Center
Mon 10:35:29 AM 38.3500 -77.3603 19° North 274 315 7,400 -1,250 Descending Washington Center
Mon 10:36:29 AM 38.4117 -77.4119 327° Northwest 240 276 6,100 -1,240 Descending Washington Center
Mon 10:37:30 AM 38.4758 -77.4456 338° Northwest 240 276 4,900 -1,041 Descending Washington Center
Mon 10:38:30 AM 38.5467 -77.4444 North 247 284 4,000 -446 Descending Washington Center
Mon 10:39:31 AM 38.6178 -77.4464 359° North 247 284 4,000  Level Washington Center
Mon 10:40:31 AM 38.6864 -77.4428 North 247 284 4,000 -51 Level Washington Center
Mon 10:41:29 AM 38.7511 -77.4417 North 247 284 3,900 -766 Descending Washington Center
Mon 10:42:52 AM 38.8333 -77.4333 North 189 217 2,200 -1,091 Descending Potomac TRACON
Mon 10:43:52 AM 38.8833 -77.4333 360° North 141 162 1,300 -793 Descending Potomac TRACON
Mon 10:44:53 AM 38.9167 -77.4333 360° North 129 148 600 -689 Descending Potomac TRACON

Login

Don't have an account? Register now (free) for customized features, flight alerts, and more!